createdAt,value
2022-09-01T00:00:01.607Z,99.90
2022-09-01T00:03:05.943Z,99.90
2022-09-01T00:06:11.846Z,99.90
2022-09-01T00:09:17.442Z,99.90
2022-09-01T00:12:19.124Z,99.90
2022-09-01T00:15:20.706Z,99.90
2022-09-01T00:18:22.074Z,99.90
2022-09-01T00:21:36.284Z,99.90
2022-09-01T00:24:37.825Z,99.90
2022-09-01T00:27:38.958Z,99.90
2022-09-01T00:30:40.353Z,99.90
2022-09-01T00:33:42.735Z,99.90
2022-09-01T00:36:43.926Z,99.90
2022-09-01T00:39:45.046Z,99.90
2022-09-01T00:42:46.829Z,99.90
2022-09-01T00:45:48.239Z,99.90
2022-09-01T00:48:57.374Z,99.90
2022-09-01T00:52:20.961Z,99.90
2022-09-01T00:55:33.599Z,99.90
2022-09-01T00:58:37.740Z,99.90
2022-09-01T01:01:39.767Z,99.90
2022-09-01T01:04:43.856Z,99.90
2022-09-01T01:07:47.515Z,99.90
2022-09-01T01:10:48.693Z,99.90
2022-09-01T01:13:59.910Z,99.90
2022-09-01T01:17:01.448Z,99.90
2022-09-01T01:20:23.990Z,99.90
2022-09-01T01:23:40.837Z,99.90
2022-09-01T01:26:42.634Z,99.90
2022-09-01T01:29:43.617Z,99.90
2022-09-01T01:32:47.828Z,99.90
2022-09-01T01:35:51.894Z,99.90
2022-09-01T01:38:54.103Z,99.90
2022-09-01T01:41:58.921Z,99.90
2022-09-01T01:45:00.253Z,99.90
2022-09-01T01:48:10.813Z,99.90
2022-09-01T01:51:14.097Z,99.90
2022-09-01T01:54:17.433Z,99.90
2022-09-01T01:57:18.622Z,99.90
2022-09-01T02:00:30.351Z,99.90
2022-09-01T02:03:38.669Z,99.90
2022-09-01T02:06:45.974Z,99.90
2022-09-01T02:09:48.348Z,99.90
2022-09-01T02:12:50.278Z,99.90
2022-09-01T02:15:55.809Z,99.90
2022-09-01T02:18:57.284Z,99.90
2022-09-01T02:22:00.436Z,99.90
2022-09-01T02:25:01.291Z,99.90
2022-09-01T02:28:04.409Z,99.90
2022-09-01T02:31:09.123Z,99.90
2022-09-01T02:34:14.091Z,99.90
2022-09-01T02:37:16.020Z,99.90
2022-09-01T02:40:17.123Z,99.90
2022-09-01T02:43:20.551Z,99.90
2022-09-01T02:46:24.492Z,99.90
2022-09-01T02:49:28.416Z,99.90
2022-09-01T02:52:34.926Z,99.90
2022-09-01T02:55:39.697Z,99.90
2022-09-01T02:58:46.676Z,99.90
2022-09-01T03:01:54.036Z,99.90
2022-09-01T03:04:58.094Z,99.90
2022-09-01T03:08:04.285Z,99.90
2022-09-01T03:11:13.209Z,99.90
2022-09-01T03:14:15.037Z,99.90
2022-09-01T03:17:16.400Z,99.90
2022-09-01T03:20:19.643Z,99.90
2022-09-01T03:23:20.553Z,99.90
2022-09-01T03:26:23.424Z,99.90
2022-09-01T03:29:24.781Z,99.90
2022-09-01T03:32:26.058Z,99.90
2022-09-01T03:35:32.036Z,99.90
2022-09-01T03:38:34.423Z,99.90
2022-09-01T03:41:38.202Z,99.90
2022-09-01T03:44:41.099Z,99.90
2022-09-01T03:47:45.033Z,99.90
2022-09-01T03:50:47.528Z,99.90
2022-09-01T03:53:49.656Z,99.90
2022-09-01T03:56:51.482Z,99.90
2022-09-01T03:59:55.270Z,99.90
2022-09-01T04:03:00.642Z,99.90
2022-09-01T04:06:03.144Z,99.90
2022-09-01T04:09:05.051Z,99.90
2022-09-01T04:12:08.235Z,99.90
2022-09-01T04:15:12.494Z,99.90
2022-09-01T04:18:20.722Z,99.90
2022-09-01T04:21:23.077Z,99.90
2022-09-01T04:24:28.446Z,99.90
2022-09-01T04:27:29.656Z,99.90
2022-09-01T04:30:33.922Z,99.90
2022-09-01T04:33:40.147Z,99.90
2022-09-01T04:36:46.936Z,99.90
2022-09-01T04:39:56.834Z,99.90
2022-09-01T04:42:58.507Z,99.90
2022-09-01T04:46:00.493Z,99.90
2022-09-01T04:49:13.075Z,99.90
2022-09-01T04:52:15.635Z,99.90
2022-09-01T04:55:19.367Z,99.90
2022-09-01T04:58:22.531Z,99.90
2022-09-01T05:01:27.786Z,99.90
2022-09-01T05:04:33.939Z,99.90
2022-09-01T05:07:38.159Z,99.90
2022-09-01T05:10:42.072Z,99.90
2022-09-01T05:13:57.958Z,99.90
2022-09-01T05:16:59.927Z,99.90
2022-09-01T05:20:02.415Z,99.90
2022-09-01T05:23:03.417Z,99.90
2022-09-01T05:26:14.844Z,99.90
2022-09-01T05:29:17.571Z,99.90
2022-09-01T05:32:22.134Z,99.90
2022-09-01T05:35:32.465Z,99.90
2022-09-01T05:38:35.195Z,99.90
2022-09-01T05:41:36.054Z,99.90
2022-09-01T05:44:44.521Z,99.90
2022-09-01T05:47:49.035Z,99.90
2022-09-01T05:50:52.869Z,99.90
2022-09-01T05:53:58.997Z,99.90
2022-09-01T05:57:23.460Z,99.90
2022-09-01T06:00:23.877Z,99.90
2022-09-01T06:03:27.914Z,99.90
2022-09-01T06:06:55.076Z,99.90
2022-09-01T06:10:00.968Z,99.90
2022-09-01T06:13:02.888Z,99.90
2022-09-01T06:16:05.036Z,99.90
2022-09-01T06:19:07.613Z,99.90
2022-09-01T06:22:11.091Z,99.90
2022-09-01T06:25:11.994Z,99.90
2022-09-01T06:28:21.492Z,99.90
2022-09-01T06:31:25.702Z,99.90
2022-09-01T06:34:26.819Z,99.90
2022-09-01T06:37:29.021Z,99.90
2022-09-01T06:40:39.444Z,99.90
2022-09-01T06:43:41.829Z,99.90
2022-09-01T06:46:43.911Z,99.90
2022-09-01T06:49:45.226Z,99.90
2022-09-01T06:56:31.935Z,99.90
2022-09-01T07:02:58.431Z,99.90
2022-09-01T07:06:59.023Z,99.90
2022-09-01T07:10:18.672Z,99.90
2022-09-01T07:13:25.597Z,99.90
2022-09-01T07:16:33.387Z,99.90
2022-09-01T07:19:53.326Z,99.90
2022-09-01T07:23:07.272Z,99.90
2022-09-01T07:26:10.297Z,99.90
2022-09-01T07:29:17.711Z,99.90
2022-09-01T07:36:25.691Z,99.90
2022-09-01T07:42:30.980Z,99.90
2022-09-01T07:46:37.086Z,99.90
2022-09-01T07:50:11.364Z,99.90
2022-09-01T07:53:02.247Z,99.90
2022-09-01T07:56:10.589Z,99.90
2022-09-01T07:59:18.505Z,99.90
2022-09-01T08:02:36.670Z,99.90
2022-09-01T08:05:38.698Z,99.90
2022-09-01T08:08:41.592Z,99.90
2022-09-01T08:18:48.193Z,99.90
2022-09-01T08:21:58.139Z,99.90
2022-09-01T08:25:11.188Z,99.90
2022-09-01T08:28:15.589Z,99.90
2022-09-01T08:31:21.020Z,99.90
2022-09-01T08:34:22.922Z,99.90
2022-09-01T08:37:25.872Z,99.90
2022-09-01T08:40:27.335Z,99.90
2022-09-01T08:43:57.917Z,99.90
2022-09-01T08:47:07.192Z,99.90
2022-09-01T08:50:09.846Z,99.90
2022-09-01T08:53:47.988Z,99.90
2022-09-01T08:56:57.810Z,99.90
2022-09-01T09:00:23.499Z,99.90
2022-09-01T09:03:41.896Z,99.90
2022-09-01T09:07:10.799Z,99.90
2022-09-01T09:10:19.836Z,99.90
2022-09-01T09:13:38.975Z,99.90
2022-09-01T09:17:04.508Z,99.90
2022-09-01T09:20:06.682Z,99.90
2022-09-01T09:23:31.765Z,99.90
2022-09-01T09:26:48.323Z,99.90
2022-09-01T09:29:54.503Z,99.90
2022-09-01T09:33:44.206Z,99.90
2022-09-01T09:36:36.192Z,99.90
2022-09-01T09:39:37.111Z,99.90
2022-09-01T09:42:59.582Z,99.90
2022-09-01T09:46:27.026Z,99.90
2022-09-01T09:49:36.500Z,99.90
2022-09-01T09:52:41.802Z,99.90
2022-09-01T09:56:09.422Z,99.90
2022-09-01T09:59:57.814Z,99.90
2022-09-01T10:03:13.169Z,99.90
2022-09-01T10:06:35.941Z,99.90
2022-09-01T10:09:38.679Z,99.20
2022-09-01T10:12:39.660Z,95.40
2022-09-01T10:15:49.166Z,97.90
2022-09-01T10:19:00.102Z,99.90
2022-09-01T10:22:02.872Z,96.80
2022-09-01T10:25:10.249Z,96.00
2022-09-01T10:28:24.779Z,94.00
2022-09-01T10:31:32.287Z,92.30
2022-09-01T10:34:38.402Z,89.40
2022-09-01T10:37:41.670Z,89.10
2022-09-01T10:41:14.689Z,89.00
2022-09-01T10:44:23.094Z,89.50
2022-09-01T10:47:37.936Z,88.60
2022-09-01T10:50:39.450Z,92.50
2022-09-01T10:53:55.913Z,94.80
2022-09-01T10:57:03.861Z,95.30
2022-09-01T11:00:40.475Z,96.10
2022-09-01T11:03:57.177Z,95.10
2022-09-01T11:07:12.571Z,95.30
2022-09-01T11:10:34.756Z,95.70
2022-09-01T11:13:49.626Z,93.30
2022-09-01T11:17:16.246Z,96.90
2022-09-01T11:20:28.781Z,97.70
2022-09-01T11:23:31.677Z,95.80
2022-09-01T11:26:32.916Z,96.10
2022-09-01T11:30:01.012Z,92.20
2022-09-01T11:33:17.462Z,87.10
2022-09-01T11:36:24.371Z,89.30
2022-09-01T11:39:42.958Z,90.30
2022-09-01T11:42:46.760Z,88.70
2022-09-01T11:46:17.761Z,87.10
2022-09-01T11:49:33.496Z,83.90
2022-09-01T11:52:38.767Z,84.90
2022-09-01T11:55:46.528Z,88.20
2022-09-01T11:58:47.974Z,86.80
2022-09-01T12:01:48.785Z,87.50
2022-09-01T12:04:51.014Z,88.90
2022-09-01T12:07:52.923Z,89.80
2022-09-01T12:11:31.200Z,91.20
2022-09-01T12:14:54.978Z,92.00
2022-09-01T12:18:10.056Z,88.30
2022-09-01T12:21:33.135Z,90.80
2022-09-01T12:24:37.246Z,84.30
2022-09-01T12:27:38.239Z,85.20
2022-09-01T12:30:41.380Z,82.70
2022-09-01T12:33:48.279Z,82.90
2022-09-01T12:37:15.652Z,84.20
2022-09-01T12:40:31.900Z,83.30
2022-09-01T12:43:40.860Z,82.40
2022-09-01T12:46:46.657Z,80.70
2022-09-01T12:49:52.026Z,82.20
2022-09-01T12:53:02.186Z,81.80
2022-09-01T12:56:31.409Z,79.70
2022-09-01T12:59:37.574Z,80.60
2022-09-01T13:02:45.556Z,79.30
2022-09-01T13:05:52.433Z,81.60
2022-09-01T13:08:54.113Z,82.90
2022-09-01T13:12:16.125Z,80.50
2022-09-01T13:15:17.493Z,78.70
2022-09-01T13:18:21.576Z,77.80
2022-09-01T13:21:23.524Z,76.80
2022-09-01T13:24:28.473Z,76.40
2022-09-01T13:27:31.662Z,77.70
2022-09-01T13:30:34.228Z,78.20
2022-09-01T13:34:09.409Z,75.90
2022-09-01T13:36:57.439Z,75.10
2022-09-01T13:39:58.486Z,75.60
2022-09-01T13:42:59.809Z,75.20
2022-09-01T13:46:00.748Z,76.10
2022-09-01T13:49:04.470Z,76.40
2022-09-01T13:52:24.643Z,75.50
2022-09-01T13:55:30.372Z,73.10
2022-09-01T13:58:31.666Z,73.90
2022-09-01T14:01:33.318Z,75.70
2022-09-01T14:04:35.028Z,76.60
2022-09-01T14:07:37.280Z,77.00
2022-09-01T14:10:46.652Z,74.30
2022-09-01T14:13:47.795Z,75.00
2022-09-01T14:16:49.537Z,76.00
2022-09-01T14:19:53.855Z,73.70
2022-09-01T14:22:56.096Z,74.20
2022-09-01T14:25:58.958Z,74.20
2022-09-01T14:29:02.611Z,76.60
2022-09-01T14:32:04.302Z,76.20
2022-09-01T14:35:08.319Z,73.60
2022-09-01T14:38:09.950Z,73.10
2022-09-01T14:41:15.126Z,74.00
2022-09-01T14:44:16.481Z,75.00
2022-09-01T14:47:19.248Z,74.10
2022-09-01T14:50:23.384Z,74.10
2022-09-01T14:53:25.117Z,79.50
2022-09-01T14:56:26.359Z,78.30
2022-09-01T14:59:28.072Z,78.40
2022-09-01T15:02:29.332Z,80.70
2022-09-01T15:05:30.356Z,78.60
2022-09-01T15:08:43.308Z,76.60
2022-09-01T15:11:44.478Z,73.10
2022-09-01T15:14:46.928Z,72.90
2022-09-01T15:17:48.617Z,75.00
2022-09-01T15:20:51.094Z,78.40
2022-09-01T15:23:54.139Z,78.80
2022-09-01T15:26:55.347Z,81.60
2022-09-01T15:29:58.067Z,84.20
2022-09-01T15:32:59.314Z,83.00
2022-09-01T15:36:00.177Z,76.40
2022-09-01T15:39:01.464Z,70.10
2022-09-01T15:42:03.212Z,69.50
2022-09-01T15:45:09.773Z,62.80
2022-09-01T15:48:12.382Z,60.90
2022-09-01T15:51:32.770Z,62.70
2022-09-01T15:54:39.197Z,73.70
2022-09-01T15:57:40.363Z,79.60
2022-09-01T16:00:43.377Z,83.70
2022-09-01T16:03:44.278Z,85.60
2022-09-01T16:06:45.633Z,85.90
2022-09-01T16:09:46.548Z,76.20
2022-09-01T16:12:48.512Z,81.10
2022-09-01T16:16:27.360Z,81.50
2022-09-01T16:19:41.755Z,81.10
2022-09-01T16:22:56.660Z,86.70
2022-09-01T16:26:01.045Z,89.40
2022-09-01T16:29:11.431Z,90.80
2022-09-01T16:32:14.771Z,87.40
2022-09-01T16:35:19.820Z,86.20
2022-09-01T16:38:36.554Z,86.20
2022-09-01T16:42:13.527Z,86.30
2022-09-01T16:45:52.586Z,85.80
2022-09-01T16:49:42.424Z,86.10
2022-09-01T16:53:15.352Z,86.20
2022-09-01T16:56:39.001Z,84.60
2022-09-01T17:00:01.334Z,86.70
2022-09-01T17:03:17.546Z,87.80
2022-09-01T17:06:47.173Z,87.90
2022-09-01T17:10:03.093Z,88.60
2022-09-01T17:13:38.201Z,88.30
2022-09-01T17:16:44.526Z,88.30
2022-09-01T17:19:52.215Z,88.80
2022-09-01T17:22:59.330Z,89.80
2022-09-01T17:26:07.380Z,91.70
2022-09-01T17:29:24.775Z,92.20
2022-09-01T17:32:39.373Z,92.80
2022-09-01T17:36:24.146Z,93.10
2022-09-01T17:39:56.838Z,93.60
2022-09-01T17:43:34.394Z,94.50
2022-09-01T17:46:49.426Z,95.20
2022-09-01T17:50:31.278Z,95.80
2022-09-01T17:53:50.324Z,96.60
2022-09-01T17:57:11.761Z,98.00
2022-09-01T18:00:25.099Z,99.00
2022-09-01T18:03:45.902Z,99.90
2022-09-01T18:07:54.685Z,99.90
2022-09-01T18:11:02.381Z,99.90
2022-09-01T18:14:12.451Z,99.90
2022-09-01T18:17:31.905Z,99.90
2022-09-01T18:20:48.784Z,99.90
2022-09-01T18:23:58.218Z,99.90
2022-09-01T18:27:01.749Z,99.90
2022-09-01T18:30:04.590Z,99.90
2022-09-01T18:33:26.156Z,99.90
2022-09-01T18:37:10.623Z,99.90
2022-09-01T18:40:32.898Z,99.90
2022-09-01T18:43:43.051Z,99.90
2022-09-01T18:47:13.645Z,99.90
2022-09-01T18:50:42.428Z,99.90
2022-09-01T18:54:03.509Z,99.90
2022-09-01T18:57:16.982Z,99.90
2022-09-01T19:00:22.206Z,99.90
2022-09-01T19:03:41.805Z,99.90
2022-09-01T19:06:54.802Z,99.90
2022-09-01T19:10:07.308Z,99.90
2022-09-01T19:13:53.420Z,99.90
2022-09-01T19:17:26.261Z,99.90
2022-09-01T19:20:47.034Z,99.90
2022-09-01T19:23:59.522Z,99.90
2022-09-01T19:27:32.197Z,99.90
2022-09-01T19:30:41.602Z,99.90
2022-09-01T19:33:49.649Z,99.90
2022-09-01T19:36:59.427Z,99.90
2022-09-01T19:40:01.137Z,99.90
2022-09-01T19:43:17.853Z,99.90
2022-09-01T19:46:41.101Z,99.90
2022-09-01T19:50:21.206Z,99.90
2022-09-01T19:53:53.774Z,99.90
2022-09-01T19:57:39.658Z,99.90
2022-09-01T20:00:52.586Z,99.90
2022-09-01T20:04:03.843Z,99.90
2022-09-01T20:07:30.596Z,99.90
2022-09-01T20:10:58.310Z,99.90
2022-09-01T20:14:14.233Z,99.90
2022-09-01T20:17:52.435Z,99.90
2022-09-01T20:20:55.839Z,99.90
2022-09-01T20:24:08.485Z,99.90
2022-09-01T20:27:39.008Z,99.90
2022-09-01T20:30:51.312Z,99.90
2022-09-01T20:34:14.630Z,99.90
2022-09-01T20:37:36.826Z,99.90
2022-09-01T20:40:42.432Z,99.90
2022-09-01T20:43:48.256Z,99.90
2022-09-01T20:46:52.401Z,99.90
2022-09-01T20:49:53.590Z,99.90
2022-09-01T20:53:28.603Z,99.90
2022-09-01T20:56:41.325Z,99.90
2022-09-01T20:59:54.279Z,99.90
2022-09-01T21:03:22.546Z,99.90
2022-09-01T21:07:15.577Z,99.90
2022-09-01T21:10:50.220Z,99.90
2022-09-01T21:14:47.704Z,99.90
2022-09-01T21:18:05.837Z,99.90
2022-09-01T21:21:27.097Z,99.90
2022-09-01T21:24:28.100Z,99.90
2022-09-01T21:27:37.707Z,99.90
2022-09-01T21:30:39.350Z,99.90
2022-09-01T21:33:40.327Z,99.90
2022-09-01T21:36:41.173Z,99.90
2022-09-01T21:39:42.338Z,99.90
2022-09-01T21:42:54.824Z,99.90
2022-09-01T21:45:56.115Z,99.90
2022-09-01T21:48:57.393Z,99.90
2022-09-01T21:51:58.265Z,99.90
2022-09-01T21:54:59.435Z,99.90
2022-09-01T21:58:01.978Z,99.90
2022-09-01T22:01:03.121Z,99.90
2022-09-01T22:04:05.505Z,99.90
2022-09-01T22:07:11.230Z,99.90
2022-09-01T22:10:17.593Z,99.90
2022-09-01T22:13:22.332Z,99.90
2022-09-01T22:16:23.862Z,99.90
2022-09-01T22:19:24.952Z,99.90
2022-09-01T22:22:26.862Z,99.90
2022-09-01T22:25:29.813Z,99.90
2022-09-01T22:28:31.936Z,99.90
2022-09-01T22:31:36.765Z,99.90
2022-09-01T22:34:38.497Z,99.90
2022-09-01T22:37:45.035Z,99.90
2022-09-01T22:40:51.338Z,99.90
2022-09-01T22:43:52.649Z,99.90
2022-09-01T22:46:53.660Z,99.90
2022-09-01T22:49:55.371Z,99.90
2022-09-01T22:52:56.373Z,99.90
2022-09-01T22:55:58.040Z,99.90
2022-09-01T22:59:02.686Z,99.90
2022-09-01T23:02:03.896Z,99.90
2022-09-01T23:05:06.528Z,99.90
2022-09-01T23:08:07.652Z,99.90
2022-09-01T23:11:10.025Z,99.90
2022-09-01T23:14:11.359Z,99.90
2022-09-01T23:17:12.366Z,99.90
2022-09-01T23:20:15.200Z,99.90
2022-09-01T23:23:16.273Z,99.90
2022-09-01T23:26:17.668Z,99.90
2022-09-01T23:29:19.039Z,99.90
2022-09-01T23:32:20.373Z,99.90
2022-09-01T23:35:21.307Z,99.90
2022-09-01T23:38:25.100Z,99.90
2022-09-01T23:41:31.350Z,99.90
2022-09-01T23:44:32.610Z,99.90
2022-09-01T23:47:34.017Z,99.90
2022-09-01T23:50:43.650Z,99.90
2022-09-01T23:53:46.231Z,99.90
2022-09-01T23:56:48.286Z,99.90
2022-09-01T23:59:49.270Z,99.90
